PWSweather.com
Personal Weather Stations
Station Observations
BLACKWELL
Blackwell, AlfretonGB DE55

BlackwellAlfretonGB DE55

Lat: 53.12076, Lon: -1.354978

Elevation: 410

Station Type: Vantage Pro

High Low Average
Temperature 52.7°F11.5°F 47.5°F8.6°F 49.1°F9.5°F
Dew Point 46.8°F8.2°F 42.4°F5.8°F 45.0°F7.2°F
Winds 3.0 mph SW4.8 mph SW Calm Calm 1.2 mph 1.9 mph
Wind Gusts 12.0 mph19.3 mph 1.0 mph1.6 mph 4.7 mph7.6 mph
Humidity 92% 74% 86%
Pressure 29.99 in1015.60 in 29.56 in1001.00 in -
Precipitation 0.03 in0.80 in - -
Hour Temp Dew Point Humidity Winds Wind Gusts Pressure Precip Precip Rate Daily Precip Total
12:47 AM 50.5°F10.3°C 46.2°F7.9°C 85% 1.0 mph SSW1.6 kmh SSW 4.0 mph6.4 kmh 29.56 in1001.0 mb 0.00 in0.0 mm 0.00 in0.0 mm 0.00 in0.0 mm
01:47 AM 49.3°F9.6°C 45.9°F7.7°C 88% 2.0 mph SW3.2 kmh SW 7.0 mph11.3 kmh 29.58 in1001.7 mb 0.00 in0.0 mm 0.00 in0.0 mm 0.00 in0.0 mm
02:47 AM 48.9°F9.4°C 44.6°F7.0°C 85% 3.0 mph SW4.8 kmh SW 9.0 mph14.5 kmh 29.59 in1002.0 mb 0.00 in0.0 mm 0.00 in0.0 mm 0.00 in0.0 mm
03:47 AM 48.7°F9.3°C 44.4°F6.9°C 85% 3.0 mph SSW4.8 kmh SSW 8.0 mph12.9 kmh 29.61 in1002.7 mb 0.00 in0.0 mm 0.00 in0.0 mm 0.00 in0.0 mm
04:47 AM 47.5°F8.6°C 45.0°F7.2°C 91% 2.0 mph SSW3.2 kmh SSW 4.0 mph6.4 kmh 29.65 in1004.1 mb 0.00 in0.0 mm 0.00 in0.0 mm 0.00 in0.0 mm
05:47 AM 47.5°F8.6°C 45.0°F7.2°C 91% 2.0 mph SSW3.2 kmh SSW 6.0 mph9.7 kmh 29.67 in1004.7 mb 0.01 in0.3 mm 0.00 in0.0 mm 0.01 in0.3 mm
06:47 AM 47.7°F8.7°C 45.3°F7.4°C 92% 2.0 mph SW3.2 kmh SW 4.0 mph6.4 kmh 29.69 in1005.4 mb 0.02 in0.5 mm 0.00 in0.0 mm 0.03 in0.8 mm
07:47 AM 48.0°F8.9°C 45.3°F7.4°C 90% 2.0 mph S3.2 kmh S 5.0 mph8.0 kmh 29.71 in1006.1 mb 0.00 in0.0 mm 0.00 in0.0 mm 0.03 in0.8 mm
08:47 AM 47.8°F8.8°C 45.3°F7.4°C 91% 2.0 mph SSW3.2 kmh SSW 5.0 mph8.0 kmh 29.74 in1007.1 mb 0.00 in0.0 mm 0.00 in0.0 mm 0.03 in0.8 mm
09:47 AM 48.4°F9.1°C 45.3°F7.4°C 89% 1.0 mph SSW1.6 kmh SSW 4.0 mph6.4 kmh 29.76 in1007.8 mb 0.00 in0.0 mm 0.00 in0.0 mm 0.03 in0.8 mm
10:47 AM 47.8°F8.8°C 45.1°F7.3°C 90% 1.0 mph SW1.6 kmh SW 5.0 mph8.0 kmh 29.81 in1009.5 mb 0.00 in0.0 mm 0.00 in0.0 mm 0.03 in0.8 mm
11:47 AM 48.9°F9.4°C 45.5°F7.5°C 87% 1.0 mph SSW1.6 kmh SSW 4.0 mph6.4 kmh 29.82 in1009.8 mb 0.00 in0.0 mm 0.00 in0.0 mm 0.03 in0.8 mm
12:47 PM 50.7°F10.4°C 45.1°F7.3°C 81% 2.0 mph SW3.2 kmh SW 12.0 mph19.3 kmh 29.84 in1010.5 mb 0.00 in0.0 mm 0.00 in0.0 mm 0.03 in0.8 mm
01:47 PM 50.4°F10.2°C 44.8°F7.1°C 81% 1.0 mph SSW1.6 kmh SSW 5.0 mph8.0 kmh 29.86 in1011.2 mb 0.00 in0.0 mm 0.00 in0.0 mm 0.03 in0.8 mm
02:47 PM 52.7°F11.5°C 44.6°F7.0°C 74% 2.0 mph SSW3.2 kmh SSW 6.0 mph9.7 kmh 29.85 in1010.8 mb 0.00 in0.0 mm 0.00 in0.0 mm 0.03 in0.8 mm
03:47 PM 50.9°F10.5°C 43.9°F6.6°C 77% 1.0 mph SW1.6 kmh SW 6.0 mph9.7 kmh 29.89 in1012.2 mb 0.00 in0.0 mm 0.00 in0.0 mm 0.03 in0.8 mm
04:47 PM 49.8°F9.9°C 42.6°F5.9°C 76% Calm Calm 4.0 mph6.4 kmh 29.92 in1013.2 mb 0.00 in0.0 mm 0.00 in0.0 mm 0.03 in0.8 mm
05:47 PM 48.6°F9.2°C 42.4°F5.8°C 79% Calm Calm 4.0 mph6.4 kmh 29.93 in1013.5 mb 0.00 in0.0 mm 0.00 in0.0 mm 0.03 in0.8 mm
06:47 PM 48.9°F9.4°C 44.1°F6.7°C 83% Calm Calm 3.0 mph4.8 kmh 29.96 in1014.6 mb 0.00 in0.0 mm 0.00 in0.0 mm 0.03 in0.8 mm
07:47 PM 48.7°F9.3°C 45.1°F7.3°C 87% Calm Calm 2.0 mph3.2 kmh 29.96 in1014.6 mb 0.00 in0.0 mm 0.00 in0.0 mm 0.03 in0.8 mm
08:47 PM 48.2°F9.0°C 44.8°F7.1°C 88% Calm Calm 1.0 mph1.6 kmh 29.97 in1014.9 mb 0.00 in0.0 mm 0.00 in0.0 mm 0.03 in0.8 mm
09:47 PM 48.9°F9.4°C 46.8°F8.2°C 92% Calm Calm 1.0 mph1.6 kmh 29.99 in1015.6 mb 0.00 in0.0 mm 0.00 in0.0 mm 0.03 in0.8 mm
10:47 PM 49.3°F9.6°C 46.4°F8.0°C 90% Calm Calm 3.0 mph4.8 kmh 29.99 in1015.6 mb 0.00 in0.0 mm 0.00 in0.0 mm 0.03 in0.8 mm
11:47 PM 49.3°F9.6°C 46.2°F7.9°C 89% Calm Calm 1.0 mph1.6 kmh 29.99 in1015.6 mb 0.00 in0.0 mm 0.00 in0.0 mm 0.02 in0.5 mm